Time;durP1;ratioP1;P1;durP2;ratioP2;P2;SDS_P1;SDS_P2;PMS_P1;PMS_P2;Temp;Humidity;BMP_temperature;BMP_pressure;BME280_temperature;BME280_humidity;BME280_pressure;Samples;Min_cycle;Max_cycle;Signal;HPM_P1;HPM_P2
2023/04/05 00:00:35;;;;;;;5.78;3.97;;;;;;;2.88;81.56;102490.16;5090344;28;20040;-35
2023/04/05 00:03:01;;;;;;;7.33;4.37;;;;;;;2.86;82.61;102478.78;5089830;28;20047;-35
2023/04/05 00:05:30;;;;;;;5.28;4.20;;;;;;;2.87;84.59;102481.28;5090357;28;20368;-35
2023/04/05 00:08:00;;;;;;;6.85;4.05;;;;;;;2.80;82.45;102494.38;5089953;28;20024;-35
2023/04/05 00:10:26;;;;;;;5.47;4.15;;;;;;;2.86;83.76;102484.13;5089965;28;20539;-35
2023/04/05 00:12:51;;;;;;;7.38;4.22;;;;;;;2.80;83.22;102494.38;5080130;28;20032;-35
2023/04/05 00:15:17;;;;;;;6.13;4.10;;;;;;;2.76;83.79;102490.28;5077212;28;20044;-35
2023/04/05 00:17:43;;;;;;;7.20;4.57;;;;;;;2.74;85.44;102486.94;5076053;28;20024;-35
2023/04/05 00:20:10;;;;;;;5.90;4.45;;;;;;;2.69;84.43;102499.03;5076191;28;20283;-35
2023/04/05 00:22:35;;;;;;;6.05;3.95;;;;;;;2.72;85.02;102483.53;5076246;28;20093;-35
2023/04/05 00:25:02;;;;;;;5.63;4.22;;;;;;;2.74;85.60;102475.41;5076473;28;20021;-35
2023/04/05 00:27:27;;;;;;;5.78;4.32;;;;;;;2.81;85.35;102479.19;5076454;28;20020;-35
2023/04/05 00:29:53;;;;;;;7.50;4.43;;;;;;;2.80;85.48;102480.19;5076951;28;20021;-35
2023/04/05 00:32:18;;;;;;;7.00;4.13;;;;;;;2.80;85.32;102473.00;5075808;28;20032;-35
2023/04/05 00:34:43;;;;;;;6.97;4.03;;;;;;;2.83;86.83;102471.88;5076348;28;20066;-35
2023/04/05 00:37:10;;;;;;;6.27;4.30;;;;;;;2.77;86.66;102469.75;5076791;28;20070;-35
2023/04/05 00:39:35;;;;;;;6.18;4.18;;;;;;;2.79;88.69;102468.66;5076561;28;20020;-35
2023/04/05 00:42:05;;;;;;;5.37;4.13;;;;;;;2.79;86.67;102473.16;5075909;28;20496;-35
2023/04/05 00:44:33;;;;;;;5.25;4.00;;;;;;;2.82;86.98;102462.16;5076663;28;20074;-35
2023/04/05 00:47:06;;;;;;;5.90;4.20;;;;;;;2.79;88.30;102474.00;5076306;28;20508;-35
2023/04/05 00:49:33;;;;;;;5.80;4.35;;;;;;;2.71;87.85;102465.00;5075747;28;20031;-35
2023/04/05 00:51:59;;;;;;;7.13;4.07;;;;;;;2.66;87.69;102462.72;5075462;28;20059;-35
2023/04/05 00:54:27;;;;;;;5.25;4.07;;;;;;;2.62;88.09;102455.97;5075307;28;20460;-35
2023/04/05 00:56:58;;;;;;;6.40;4.53;;;;;;;2.61;88.48;102464.97;5075925;28;20035;-35
2023/04/05 00:59:23;;;;;;;7.38;4.28;;;;;;;2.58;88.74;102463.41;5075606;28;20031;-35
2023/04/05 01:01:55;;;;;;;6.97;4.73;;;;;;;2.53;88.50;102473.69;5075520;28;20127;-35
2023/04/05 01:04:24;;;;;;;6.93;4.30;;;;;;;2.49;90.03;102471.41;5075778;28;20286;-35
2023/04/05 01:07:22;;;;;;;7.68;5.10;;;;;;;2.49;88.96;102471.41;5075473;28;20078;-35
2023/04/05 01:09:55;;;;;;;7.85;5.07;;;;;;;2.35;89.12;102463.84;5075123;28;20020;-35
2023/04/05 01:12:23;;;;;;;5.47;4.55;;;;;;;2.33;89.90;102472.78;5075327;28;20415;-35
2023/04/05 01:14:51;;;;;;;7.00;4.65;;;;;;;2.26;90.01;102463.66;5075272;28;20020;-35
2023/04/05 01:17:21;;;;;;;5.53;4.35;;;;;;;2.22;90.92;102464.91;5075203;28;20032;-35
2023/04/05 01:19:49;;;;;;;7.20;4.38;;;;;;;2.17;91.65;102461.81;5075967;28;20364;-35
2023/04/05 01:22:30;;;;;;;6.57;4.55;;;;;;;2.14;91.22;102466.56;5074935;28;20021;-35
2023/04/05 01:25:27;;;;;;;8.20;4.28;;;;;;;2.15;91.22;102462.91;5074050;28;20025;-35
2023/04/05 01:27:56;;;;;;;6.88;4.70;;;;;;;2.11;91.05;102450.84;5075265;28;20025;-35
2023/04/05 01:30:25;;;;;;;6.45;4.40;;;;;;;2.00;91.44;102449.09;5074653;28;20448;-35
2023/04/05 01:32:50;;;;;;;5.72;4.70;;;;;;;2.04;92.13;102455.88;5074926;28;20461;-35
2023/04/05 01:35:38;;;;;;;5.83;4.20;;;;;;;2.08;91.83;102451.09;5074873;28;20032;-35
2023/04/05 01:38:06;;;;;;;7.40;4.80;;;;;;;1.98;92.55;102438.56;5074774;28;20025;-35
2023/04/05 01:40:32;;;;;;;8.38;4.53;;;;;;;1.95;92.92;102438.00;5074950;28;20380;-35
2023/04/05 01:43:01;;;;;;;8.98;4.13;;;;;;;1.82;93.63;102424.06;5074638;28;20020;-35
2023/04/05 01:45:26;;;;;;;6.53;4.65;;;;;;;1.91;92.89;102439.28;5075134;28;20448;-35
2023/04/05 01:47:51;;;;;;;5.10;4.10;;;;;;;1.91;92.69;102439.28;5074609;28;20050;-35
2023/04/05 01:50:17;;;;;;;7.00;4.30;;;;;;;1.91;93.05;102433.94;5075140;28;20040;-35
2023/04/05 01:52:42;;;;;;;6.87;4.47;;;;;;;1.87;92.65;102438.69;5074134;28;20031;-35
2023/04/05 01:55:08;;;;;;;9.90;4.90;;;;;;;1.79;92.80;102423.34;5074189;28;20020;-35
2023/04/05 01:57:33;;;;;;;9.00;4.67;;;;;;;1.80;92.36;102442.84;5074394;28;20035;-35
2023/04/05 01:59:58;;;;;;;7.00;5.13;;;;;;;1.78;93.13;102429.66;5074896;28;20020;-35
2023/04/05 02:02:24;;;;;;;6.50;4.83;;;;;;;1.69;92.57;102417.13;5074942;28;20208;-35
2023/04/05 02:04:49;;;;;;;5.90;4.55;;;;;;;1.73;92.58;102437.22;5074854;28;20063;-35
2023/04/05 02:07:14;;;;;;;8.67;4.70;;;;;;;1.72;93.54;102424.03;5074775;28;20029;-35
2023/04/05 02:09:40;;;;;;;6.40;4.83;;;;;;;1.62;92.81;102416.00;5073924;28;20020;-35
2023/04/05 02:12:05;;;;;;;5.70;4.33;;;;;;;1.69;93.28;102421.63;5073831;28;20044;-35
2023/04/05 02:14:30;;;;;;;5.03;3.93;;;;;;;1.70;93.29;102420.63;5073870;28;20021;-35
2023/04/05 02:16:56;;;;;;;6.80;5.40;;;;;;;1.66;95.11;102413.88;5074378;28;20021;-35
2023/04/05 02:19:22;;;;;;;7.03;4.50;;;;;;;1.70;94.99;102417.97;5074063;28;20024;-35
2023/04/05 02:21:55;;;;;;;6.80;4.45;;;;;;;1.64;94.95;102424.69;5073906;28;20017;-35
2023/04/05 02:24:20;;;;;;;7.75;4.88;;;;;;;1.59;94.27;102424.25;5073925;28;20067;-35
2023/04/05 02:26:46;;;;;;;6.70;4.43;;;;;;;1.53;94.33;102419.47;5073615;28;20465;-35
2023/04/05 02:29:11;;;;;;;8.65;4.95;;;;;;;1.44;94.23;102410.44;5074417;28;20377;-35
2023/04/05 02:31:37;;;;;;;7.13;4.97;;;;;;;1.47;94.52;102420.00;5074231;28;20101;-35
2023/04/05 02:34:02;;;;;;;7.77;4.77;;;;;;;1.45;94.56;102409.44;5073513;28;20050;-35
2023/04/05 02:36:27;;;;;;;5.63;4.40;;;;;;;1.40;95.02;102411.66;5074195;28;20027;-35
2023/04/05 02:38:53;;;;;;;11.10;5.60;;;;;;;1.41;94.91;102416.00;5073499;28;20103;-35
2023/04/05 02:41:20;;;;;;;8.02;5.10;;;;;;;1.27;95.58;102392.41;5074516;28;20285;-35
2023/04/05 02:43:46;;;;;;;6.75;4.65;;;;;;;1.35;95.07;102407.72;5073910;28;20368;-35
2023/04/05 02:46:11;;;;;;;6.40;4.43;;;;;;;1.33;96.08;102407.03;5074036;28;20099;-35
2023/04/05 02:48:37;;;;;;;6.60;4.77;;;;;;;1.31;96.03;102409.78;5073481;28;20048;-35
2023/04/05 02:51:02;;;;;;;5.43;4.47;;;;;;;1.23;96.18;102402.47;5073737;28;20051;-35
2023/04/05 02:53:28;;;;;;;6.37;4.50;;;;;;;1.25;96.40;102405.84;5073946;28;20036;-35
2023/04/05 02:55:55;;;;;;;7.67;5.07;;;;;;;1.27;96.74;102403.91;5073969;28;20637;-35
2023/04/05 02:58:22;;;;;;;7.15;5.00;;;;;;;1.23;96.83;102413.13;5073536;28;20086;-35
2023/04/05 03:00:49;;;;;;;7.65;4.68;;;;;;;1.21;97.21;102401.75;5073273;28;20040;-35
2023/04/05 03:03:17;;;;;;;6.88;4.50;;;;;;;1.19;97.26;102400.19;5074328;28;20097;-35
2023/04/05 03:05:42;;;;;;;6.10;5.22;;;;;;;1.20;96.58;102400.06;5073479;28;20029;-35
2023/04/05 03:08:08;;;;;;;7.88;4.78;;;;;;;1.20;96.50;102397.41;5073540;28;20028;-35
2023/04/05 03:10:35;;;;;;;8.67;5.43;;;;;;;1.12;96.81;102383.03;5074126;28;20029;-35
2023/04/05 03:13:01;;;;;;;7.68;5.18;;;;;;;1.17;96.41;102387.03;5073938;28;20020;-35
2023/04/05 03:15:27;;;;;;;6.28;4.20;;;;;;;1.16;96.39;102392.47;5073718;28;20123;-35
2023/04/05 03:17:52;;;;;;;7.88;4.70;;;;;;;1.17;96.33;102391.47;5073377;28;20500;-35
2023/04/05 03:20:17;;;;;;;8.83;5.03;;;;;;;1.14;96.27;102387.28;5073061;28;20028;-35
2023/04/05 03:22:43;;;;;;;6.07;4.50;;;;;;;1.12;95.71;102385.69;5073333;28;20103;-35
2023/04/05 03:25:09;;;;;;;;;;;;;;;1.26;94.76;102377.38;5074071;28;20137;-35
2023/04/05 03:27:35;;;;;;;7.60;4.75;;;;;;;1.14;95.62;102383.75;5073332;28;19909;-34
2023/04/05 03:30:00;;;;;;;;;;;;;;;1.26;94.08;102380.88;5074024;28;20020;-35
2023/04/05 03:32:26;;;;;;;7.13;4.82;;;;;;;1.06;95.43;102365.75;5073261;28;20306;-34
2023/04/05 03:34:51;;;;;;;6.57;5.03;;;;;;;1.01;95.00;102359.97;5073561;28;20034;-35
2023/04/05 03:37:16;;;;;;;6.57;5.00;;;;;;;1.04;96.49;102362.41;5072959;28;20508;-34
2023/04/05 03:39:42;;;;;;;6.50;4.40;;;;;;;0.99;97.05;102372.59;5072926;28;20107;-34
2023/04/05 03:42:07;;;;;;;8.90;5.13;;;;;;;1.04;96.32;102381.03;5073117;28;20108;-34
2023/04/05 03:44:32;;;;;;;8.00;4.97;;;;;;;0.95;97.06;102364.03;5072943;28;20048;-34
2023/04/05 03:46:58;;;;;;;6.20;4.97;;;;;;;0.99;96.84;102375.25;5073294;28;20020;-35
2023/04/05 03:49:23;;;;;;;8.37;5.37;;;;;;;0.99;96.78;102377.94;5076860;28;20033;-34
2023/04/05 03:51:49;;;;;;;5.63;4.63;;;;;;;0.86;96.69;102356.81;5076562;28;20044;-35
2023/04/05 03:54:15;;;;;;;7.38;5.10;;;;;;;0.93;96.54;102375.81;5076453;28;20043;-34
2023/04/05 03:56:40;;;;;;;10.13;6.07;;;;;;;0.93;97.78;102373.13;5077061;28;20031;-34
2023/04/05 03:59:06;;;;;;;6.87;4.73;;;;;;;0.91;97.61;102367.91;5076635;28;20021;-34
2023/04/05 04:01:31;;;;;;;5.67;4.83;;;;;;;0.87;97.66;102371.81;5076980;28;20302;-34
2023/04/05 04:03:59;;;;;;;6.47;5.13;;;;;;;0.79;97.53;102354.81;5077214;28;20484;-34
2023/04/05 04:06:25;;;;;;;7.97;5.22;;;;;;;0.80;97.77;102353.84;5076558;28;20020;-34
2023/04/05 04:08:51;;;;;;;8.60;5.25;;;;;;;0.83;97.63;102366.88;5076442;28;20112;-34
2023/04/05 04:11:16;;;;;;;7.50;4.93;;;;;;;0.85;96.99;102364.94;5077120;28;20103;-34
2023/04/05 04:13:42;;;;;;;8.63;4.90;;;;;;;0.85;97.34;102360.47;5076441;28;20062;-34
2023/04/05 04:16:07;;;;;;;7.83;4.80;;;;;;;0.77;98.32;102355.75;5076391;28;20117;-34
2023/04/05 04:18:32;;;;;;;5.80;4.80;;;;;;;0.74;98.33;102356.03;5076045;28;20070;-34
2023/04/05 04:21:05;;;;;;;6.43;4.87;;;;;;;0.80;98.93;102368.00;5076911;28;20020;-35
2023/04/05 04:23:33;;;;;;;9.00;4.90;;;;;;;0.76;99.32;102364.75;5076272;28;20017;-34
2023/04/05 04:26:00;;;;;;;12.40;5.55;;;;;;;0.76;99.88;102362.06;5076170;28;20028;-34
2023/04/05 04:28:26;;;;;;;6.75;5.03;;;;;;;0.78;99.74;102369.91;5076126;28;20029;-35
2023/04/05 04:30:52;;;;;;;8.30;5.40;;;;;;;0.71;98.44;102358.97;5075843;28;20024;-35
2023/04/05 04:33:18;;;;;;;8.47;5.87;;;;;;;0.65;99.38;102354.16;5076394;28;20035;-35
2023/04/05 04:35:45;;;;;;;8.35;5.70;;;;;;;0.61;98.98;102355.38;5076325;28;20070;-35
2023/04/05 04:38:19;;;;;;;8.98;5.57;;;;;;;0.64;99.61;102364.94;5075943;28;20111;-35
2023/04/05 04:40:49;;;;;;;9.32;5.32;;;;;;;0.62;99.84;102362.38;5075911;28;20028;-35
2023/04/05 04:43:18;;;;;;;9.40;5.55;;;;;;;0.59;100.00;102359.16;5076482;28;20021;-35
2023/04/05 04:45:47;;;;;;;7.18;5.30;;;;;;;0.54;99.75;102361.34;5075880;28;20468;-35
2023/04/05 04:48:16;;;;;;;6.72;4.72;;;;;;;0.48;100.00;102355.56;5075837;28;20031;-35
2023/04/05 04:50:46;;;;;;;7.63;5.78;;;;;;;0.60;99.78;102367.00;5076858;28;20021;-35
2023/04/05 04:53:17;;;;;;;10.50;5.63;;;;;;;0.49;99.84;102348.44;5075723;28;20401;-35
2023/04/05 04:55:43;;;;;;;7.30;5.50;;;;;;;0.51;100.00;102362.47;5076561;28;20060;-35
2023/04/05 04:58:10;;;;;;;7.10;5.53;;;;;;;0.52;100.00;102369.47;5075509;28;20031;-35
2023/04/05 05:00:40;;;;;;;8.10;5.32;;;;;;;0.44;100.00;102353.28;5075134;28;20019;-35
2023/04/05 05:03:07;;;;;;;8.63;5.88;;;;;;;0.46;100.00;102369.97;5076392;28;20028;-35
2023/04/05 05:05:32;;;;;;;10.32;5.80;;;;;;;0.47;99.80;102361.84;5076330;28;20029;-35
2023/04/05 05:07:57;;;;;;;9.90;6.07;;;;;;;0.43;100.00;102370.22;5076212;28;20027;-35
2023/04/05 05:10:23;;;;;;;7.90;5.60;;;;;;;0.37;100.00;102360.09;5076228;28;20258;-35
2023/04/05 05:12:48;;;;;;;8.57;6.30;;;;;;;0.36;100.00;102347.75;5075355;28;20021;-35
2023/04/05 05:15:13;;;;;;;7.47;6.10;;;;;;;0.43;100.00;102359.56;5075886;28;20021;-35
2023/04/05 05:17:39;;;;;;;8.07;5.73;;;;;;;0.39;100.00;102356.34;5076016;28;20021;-35
2023/04/05 05:20:09;;;;;;;9.57;5.77;;;;;;;0.44;100.00;102364.78;5075394;28;20024;-35
2023/04/05 05:22:35;;;;;;;7.28;5.00;;;;;;;0.43;100.00;102360.41;5075916;28;20024;-35
2023/04/05 05:25:01;;;;;;;;;;;;;;;0.55;99.94;102361.22;5076158;28;20063;-35
2023/04/05 05:27:27;;;;;;;7.10;5.22;;;;;;;0.44;100.00;102359.47;5075228;28;19940;-35
2023/04/05 05:29:52;;;;;;;6.60;5.00;;;;;;;0.44;100.00;102356.81;5075301;28;20027;-35
2023/04/05 05:32:17;;;;;;;6.93;4.73;;;;;;;0.54;100.00;102348.91;5075483;28;20020;-36
2023/04/05 05:34:43;;;;;;;8.60;4.97;;;;;;;0.66;100.00;102352.34;5075561;28;20023;-35
2023/04/05 05:37:11;;;;;;;8.77;5.97;;;;;;;0.64;100.00;102348.97;5074515;28;20048;-36
2023/04/05 05:39:36;;;;;;;7.30;5.43;;;;;;;0.77;100.00;102353.09;5074768;28;20494;-35
2023/04/05 05:42:02;;;;;;;9.00;4.95;;;;;;;0.81;100.00;102352.84;5074298;28;20021;-35
2023/04/05 05:44:28;;;;;;;6.72;5.28;;;;;;;0.92;100.00;102334.13;5075264;28;20067;-35
2023/04/05 05:46:53;;;;;;;7.85;5.90;;;;;;;0.96;100.00;102341.72;5074642;28;20103;-35
2023/04/05 05:49:19;;;;;;;6.07;4.73;;;;;;;1.13;100.00;102345.63;5074361;28;20104;-35
2023/04/05 05:51:45;;;;;;;10.98;5.50;;;;;;;1.14;100.00;102344.63;5074263;28;20052;-35
2023/04/05 05:54:10;;;;;;;9.38;5.72;;;;;;;1.17;100.00;102344.38;5074442;28;20070;-35
2023/04/05 05:56:35;;;;;;;6.80;5.43;;;;;;;1.26;100.00;102343.56;5074548;28;20532;-35
2023/04/05 05:59:01;;;;;;;5.97;5.00;;;;;;;1.50;100.00;102356.56;5074431;28;20028;-35
2023/04/05 06:01:26;;;;;;;10.13;5.80;;;;;;;1.56;100.00;102355.19;5074403;28;20102;-35
2023/04/05 06:03:53;;;;;;;8.55;5.32;;;;;;;1.58;100.00;102360.41;5074601;28;20017;-35
2023/04/05 06:06:18;;;;;;;;;;;;;;;1.74;100.00;102363.38;5075266;28;20047;-35
2023/04/05 06:08:43;;;;;;;7.17;5.10;;;;;;;1.76;100.00;102351.63;5073803;28;19986;-35
2023/04/05 06:11:20;;;;;;;6.70;5.07;;;;;;;1.76;100.00;102362.28;5074011;28;20255;-35
2023/04/05 06:13:45;;;;;;;7.05;4.80;;;;;;;1.81;100.00;102353.88;5074720;28;20025;-35
2023/04/05 06:16:11;;;;;;;7.63;5.53;;;;;;;1.85;99.78;102359.75;5074415;28;20471;-35
2023/04/05 06:18:36;;;;;;;8.13;6.03;;;;;;;1.98;99.14;102368.38;5073749;28;20491;-36
2023/04/05 06:21:01;;;;;;;7.33;5.50;;;;;;;2.08;99.51;102363.03;5074877;28;20016;-35
2023/04/05 06:23:27;;;;;;;6.57;5.30;;;;;;;2.12;98.87;102356.47;5073989;28;20024;-35
2023/04/05 06:25:53;;;;;;;7.50;5.50;;;;;;;2.09;96.56;102360.22;5074302;28;20021;-35
2023/04/05 06:28:18;;;;;;;9.50;5.60;;;;;;;2.03;94.20;102369.63;5074540;28;20485;-35
2023/04/05 06:30:44;;;;;;;10.40;6.10;;;;;;;2.01;92.68;102365.44;5074495;28;20036;-35
2023/04/05 06:33:09;;;;;;;7.73;5.90;;;;;;;2.10;96.53;102358.41;5073853;28;20021;-35
2023/04/05 06:35:34;;;;;;;9.00;5.23;;;;;;;2.31;98.80;102356.47;5073859;28;20111;-35
2023/04/05 06:38:00;;;;;;;7.63;6.25;;;;;;;2.31;93.74;102359.97;5073511;28;20023;-35
2023/04/05 06:40:25;;;;;;;9.60;6.40;;;;;;;2.37;90.06;102365.75;5073491;28;20540;-35
2023/04/05 06:42:50;;;;;;;8.63;5.80;;;;;;;2.47;92.04;102358.56;5073770;28;20407;-35
2023/04/05 06:45:17;;;;;;;10.00;6.17;;;;;;;2.55;90.83;102359.56;5074105;28;20023;-35
2023/04/05 06:47:43;;;;;;;7.60;6.13;;;;;;;2.54;88.79;102354.38;5074227;28;20112;-35
2023/04/05 06:50:09;;;;;;;7.97;5.87;;;;;;;2.62;88.55;102354.47;5073719;28;20469;-35
2023/04/05 06:52:35;;;;;;;7.90;6.35;;;;;;;2.66;88.67;102361.22;5073892;28;20031;-36
2023/04/05 06:55:00;;;;;;;8.13;5.63;;;;;;;2.79;89.27;102360.94;5073668;28;20415;-35
2023/04/05 06:57:26;;;;;;;9.43;5.80;;;;;;;2.84;90.35;102346.16;5073601;28;20063;-35
2023/04/05 06:59:52;;;;;;;6.75;5.35;;;;;;;3.07;90.25;102369.88;5074429;28;20029;-35
2023/04/05 07:02:19;;;;;;;9.50;7.25;;;;;;;3.16;88.47;102365.50;5073937;28;20043;-35
2023/04/05 07:04:45;;;;;;;;;;;;;;;3.31;89.83;102367.53;5073915;28;20085;-36
2023/04/05 07:07:11;;;;;;;8.90;6.22;;;;;;;3.28;86.72;102359.84;5073471;28;19908;-35
2023/04/05 07:09:36;;;;;;;7.28;5.63;;;;;;;3.47;88.03;102377.66;5073780;28;20361;-35
2023/04/05 07:12:03;;;;;;;8.27;6.45;;;;;;;3.47;84.05;102377.66;5073440;28;20530;-36
2023/04/05 07:14:29;;;;;;;8.98;6.18;;;;;;;3.54;84.24;102369.88;5073679;28;20349;-36
2023/04/05 07:16:55;;;;;;;7.75;6.28;;;;;;;3.61;83.85;102370.94;5073999;28;20105;-35
2023/04/05 07:19:21;;;;;;;8.37;5.67;;;;;;;3.69;81.95;102373.72;5073417;28;20469;-36
2023/04/05 07:21:47;;;;;;;9.75;6.30;;;;;;;3.73;82.28;102366.25;5073786;28;20278;-35
2023/04/05 07:24:12;;;;;;;9.02;5.97;;;;;;;3.76;82.52;102366.81;5077674;28;20028;-36
2023/04/05 07:26:38;;;;;;;9.27;6.33;;;;;;;3.90;79.39;102368.13;5077481;28;20403;-35
2023/04/05 07:29:05;;;;;;;13.10;6.13;;;;;;;3.88;76.23;102370.94;5077325;28;20371;-36
2023/04/05 07:31:30;;;;;;;9.35;5.75;;;;;;;3.98;77.97;102364.69;5078119;28;20035;-36
2023/04/05 07:33:58;;;;;;;8.70;6.10;;;;;;;3.99;77.54;102356.50;5077511;28;20449;-36
2023/04/05 07:36:26;;;;;;;7.10;5.60;;;;;;;4.07;77.82;102347.75;5076874;28;20341;-36
2023/04/05 07:38:52;;;;;;;11.32;6.63;;;;;;;4.11;73.79;102367.88;5076794;28;20074;-35
2023/04/05 07:41:18;;;;;;;10.32;6.47;;;;;;;4.16;74.74;102357.53;5077056;28;20024;-36
2023/04/05 07:43:44;;;;;;;10.80;6.07;;;;;;;4.22;74.11;102362.28;5077507;28;20078;-36
2023/04/05 07:46:09;;;;;;;10.63;6.87;;;;;;;4.25;73.51;102362.00;5077823;28;20028;-36
2023/04/05 07:48:34;;;;;;;7.53;6.03;;;;;;;4.38;74.42;102361.59;5076645;28;20354;-36
2023/04/05 07:51:05;;;;;;;8.20;5.80;;;;;;;4.45;74.08;102362.69;5077224;28;20038;-35
2023/04/05 07:53:30;;;;;;;9.18;6.10;;;;;;;4.47;72.53;102359.84;5076735;28;20031;-36
2023/04/05 07:55:56;;;;;;;10.75;6.57;;;;;;;4.59;74.78;102358.63;5077603;28;20021;-35
2023/04/05 07:58:22;;;;;;;9.88;6.15;;;;;;;4.64;73.47;102345.59;5077251;28;20020;-35
2023/04/05 08:00:48;;;;;;;9.63;5.97;;;;;;;4.76;72.51;102341.66;5076352;28;20139;-35
2023/04/05 08:03:13;;;;;;;11.80;6.63;;;;;;;4.90;72.66;102356.34;5077218;28;20048;-35
2023/04/05 08:05:38;;;;;;;11.10;6.33;;;;;;;4.92;71.03;102338.25;5077187;28;20107;-35
2023/04/05 08:08:04;;;;;;;9.67;5.50;;;;;;;5.10;70.59;102362.34;5076891;28;20051;-35
2023/04/05 08:10:29;;;;;;;9.15;5.85;;;;;;;5.09;68.74;102340.03;5076258;28;20024;-35
2023/04/05 08:12:55;;;;;;;8.23;5.32;;;;;;;5.19;68.94;102342.63;5076364;28;20070;-35
2023/04/05 08:15:20;;;;;;;9.97;5.83;;;;;;;5.30;66.91;102355.75;5074970;28;20074;-35
2023/04/05 08:17:45;;;;;;;7.90;5.50;;;;;;;5.36;67.99;102352.41;5075230;28;20060;-35
2023/04/05 08:20:11;;;;;;;11.73;6.73;;;;;;;5.41;67.97;102349.25;5076381;28;20017;-35
2023/04/05 08:22:36;;;;;;;8.98;5.88;;;;;;;5.55;70.28;102354.00;5076513;28;20021;-35
2023/04/05 08:25:02;;;;;;;8.03;5.83;;;;;;;5.66;67.78;102355.56;5076871;28;20036;-37
2023/04/05 08:27:27;;;;;;;8.50;6.23;;;;;;;5.72;71.44;102346.88;5075945;28;20017;-35
2023/04/05 08:29:52;;;;;;;8.93;5.80;;;;;;;5.89;69.10;102362.03;5076261;28;20262;-36
2023/04/05 08:32:18;;;;;;;10.27;6.70;;;;;;;5.90;68.61;102358.38;5076408;28;20036;-36
2023/04/05 08:34:43;;;;;;;9.30;5.83;;;;;;;5.76;66.55;102356.31;5075353;28;20092;-35
2023/04/05 08:37:09;;;;;;;8.77;5.97;;;;;;;5.80;67.07;102363.00;5075831;28;20074;-35
2023/04/05 08:39:34;;;;;;;9.25;6.63;;;;;;;5.89;69.80;102355.81;5076565;28;20024;-35
2023/04/05 08:42:15;;;;;;;12.32;5.85;;;;;;;6.06;69.85;102351.38;5075873;28;20027;-35
2023/04/05 08:44:43;;;;;;;9.48;6.47;;;;;;;6.18;66.85;102355.41;5076251;28;20029;-35
2023/04/05 08:47:13;;;;;;;8.02;5.72;;;;;;;6.34;68.71;102347.38;5075587;28;20024;-35
2023/04/05 08:49:42;;;;;;;9.02;6.22;;;;;;;6.36;65.45;102326.56;5076417;28;20028;-35
2023/04/05 08:52:07;;;;;;;10.55;6.63;;;;;;;6.49;63.46;102344.03;5075791;28;20115;-35
2023/04/05 08:54:33;;;;;;;8.67;5.93;;;;;;;6.64;66.12;102340.53;5076574;28;20063;-35
2023/04/05 08:56:58;;;;;;;7.73;5.67;;;;;;;6.75;64.49;102339.34;5075944;28;20024;-35
2023/04/05 08:59:25;;;;;;;9.80;5.38;;;;;;;6.83;61.70;102341.16;5076149;28;20039;-35
2023/04/05 09:01:51;;;;;;;6.68;5.40;;;;;;;6.74;59.97;102343.03;5075890;28;20091;-35
2023/04/05 09:04:21;;;;;;;;;;;;;;;6.90;62.82;102342.19;5075657;28;20461;-36
2023/04/05 09:06:48;;;;;;;6.07;4.93;;;;;;;6.97;58.78;102343.16;5075209;28;19915;-35
2023/04/05 09:09:15;;;;;;;9.57;5.38;;;;;;;7.10;58.93;102331.88;5075730;28;20036;-36
2023/04/05 09:11:42;;;;;;;7.70;5.38;;;;;;;7.04;57.40;102332.56;5075613;28;20404;-35
2023/04/05 09:14:08;;;;;;;8.68;5.60;;;;;;;7.16;56.30;102331.19;5075001;28;20404;-36
2023/04/05 09:16:38;;;;;;;8.43;5.65;;;;;;;7.18;58.40;102334.56;5075068;28;20024;-35
2023/04/05 09:19:04;;;;;;;8.15;4.70;;;;;;;7.29;58.38;102328.81;5075469;28;20024;-35
2023/04/05 09:21:29;;;;;;;8.75;5.50;;;;;;;7.43;56.13;102320.00;5075403;28;20028;-36
2023/04/05 09:23:55;;;;;;;7.93;5.47;;;;;;;7.54;57.96;102326.03;5074903;28;20024;-36
2023/04/05 09:26:24;;;;;;;7.82;5.75;;;;;;;7.66;57.96;102321.91;5075110;28;20097;-35
2023/04/05 09:28:50;;;;;;;8.73;5.05;;;;;;;7.65;54.95;102326.47;5074987;28;20025;-35
2023/04/05 09:31:29;;;;;;;6.97;4.90;;;;;;;7.84;55.33;102318.97;5075009;28;20032;-35
2023/04/05 09:33:58;;;;;;;6.00;4.38;;;;;;;7.84;51.37;102309.03;5074916;28;20024;-35
2023/04/05 09:36:23;;;;;;;6.10;4.43;;;;;;;8.08;54.72;102315.28;5075741;28;20097;-35
2023/04/05 09:38:48;;;;;;;8.40;4.67;;;;;;;8.20;53.47;102324.66;5074909;28;20449;-35
2023/04/05 09:41:14;;;;;;;7.83;5.03;;;;;;;8.19;51.71;102312.19;5074481;28;20024;-35
2023/04/05 09:43:41;;;;;;;6.95;5.07;;;;;;;8.18;52.07;102316.72;5075581;28;20024;-35
2023/04/05 09:46:29;;;;;;;8.45;5.25;;;;;;;8.22;50.74;102309.97;5074156;28;20025;-35
2023/04/05 09:48:55;;;;;;;7.72;5.13;;;;;;;8.41;50.16;102310.53;5074633;28;20525;-35
2023/04/05 09:51:21;;;;;;;7.43;4.30;;;;;;;8.25;48.96;102290.75;5074579;28;20036;-35
2023/04/05 09:54:02;;;;;;;6.17;4.17;;;;;;;8.52;51.83;102307.41;5075320;28;20025;-35
2023/04/05 09:56:31;;;;;;;6.22;4.40;;;;;;;8.51;49.49;102316.50;5074444;28;20253;-35
2023/04/05 09:59:01;;;;;;;6.05;4.68;;;;;;;8.63;49.33;102304.25;5074382;28;20012;-36
2023/04/05 10:01:30;;;;;;;7.90;4.45;;;;;;;8.68;49.66;102303.72;5073803;28;20135;-36
2023/04/05 10:03:57;;;;;;;6.72;4.57;;;;;;;8.77;51.56;102299.91;5074896;28;20033;-36
2023/04/05 10:06:22;;;;;;;6.75;4.68;;;;;;;8.85;49.83;102294.47;5074853;28;20039;-35
2023/04/05 10:08:50;;;;;;;8.40;4.60;;;;;;;8.91;47.50;102301.81;5074566;28;20496;-35
2023/04/05 10:11:19;;;;;;;4.60;3.83;;;;;;;8.84;45.95;102291.94;5073914;28;20481;-35
2023/04/05 10:13:45;;;;;;;6.00;3.97;;;;;;;8.85;45.58;102285.53;5074134;28;20028;-36
2023/04/05 10:16:19;;;;;;;5.30;3.97;;;;;;;8.83;44.16;102288.38;5074285;28;20032;-36
2023/04/05 10:18:51;;;;;;;5.57;4.13;;;;;;;9.00;46.32;102281.81;5073895;28;20357;-35
2023/04/05 10:21:22;;;;;;;6.38;4.28;;;;;;;9.10;46.81;102286.94;5074043;28;20056;-35
2023/04/05 10:23:57;;;;;;;5.28;4.45;;;;;;;9.25;47.03;102289.63;5074566;28;20020;-36
2023/04/05 10:26:47;;;;;;;5.38;4.22;;;;;;;9.43;45.97;102275.75;5074318;28;20112;-36
2023/04/05 10:29:18;;;;;;;5.32;4.47;;;;;;;9.60;46.03;102279.06;5075150;28;20079;-36
2023/04/05 10:32:00;;;;;;;6.45;4.38;;;;;;;9.73;46.90;102279.22;5074407;28;20488;-35
2023/04/05 10:34:43;;;;;;;7.15;4.65;;;;;;;9.66;43.57;102272.88;5074456;28;20074;-36
2023/04/05 10:37:22;;;;;;;6.53;4.43;;;;;;;9.81;46.40;102279.13;5074095;28;20020;-36
2023/04/05 10:39:48;;;;;;;6.75;5.00;;;;;;;9.62;45.07;102272.47;5074128;28;20414;-36
2023/04/05 10:42:21;;;;;;;5.63;4.50;;;;;;;9.61;45.35;102262.66;5073455;28;20024;-35
2023/04/05 10:44:51;;;;;;;7.50;4.45;;;;;;;9.61;44.32;102276.16;5074034;28;20099;-36
2023/04/05 10:47:18;;;;;;;5.78;4.65;;;;;;;9.67;45.15;102259.22;5074539;28;20028;-35
2023/04/05 10:49:48;;;;;;;7.20;4.85;;;;;;;9.91;44.79;102265.28;5073655;28;20074;-36
2023/04/05 10:52:16;;;;;;;5.85;4.00;;;;;;;9.94;44.52;102268.44;5073714;28;20024;-35
2023/04/05 10:54:41;;;;;;;5.70;4.25;;;;;;;10.06;46.22;102263.38;5073284;28;20024;-35
2023/04/05 10:57:08;;;;;;;6.97;4.57;;;;;;;10.10;42.90;102258.38;5073279;28;20025;-35
2023/04/05 10:59:35;;;;;;;5.88;4.50;;;;;;;10.19;41.88;102260.78;5073603;28;20028;-35
2023/04/05 11:02:01;;;;;;;7.07;4.88;;;;;;;10.30;44.04;102252.19;5073944;28;20135;-36
2023/04/05 11:04:26;;;;;;;6.53;4.00;;;;;;;10.37;42.18;102256.81;5074386;28;20104;-36
2023/04/05 11:07:12;;;;;;;5.73;4.03;;;;;;;10.46;43.81;102247.53;5073289;28;20042;-36
2023/04/05 11:09:49;;;;;;;4.32;3.72;;;;;;;10.55;42.50;102244.47;5074253;28;20266;-36
2023/04/05 11:12:14;;;;;;;5.78;4.00;;;;;;;10.70;41.70;102243.53;5074322;28;20033;-36
2023/04/05 11:14:40;;;;;;;5.00;3.75;;;;;;;10.78;39.60;102246.06;5073404;28;20027;-36
2023/04/05 11:17:24;;;;;;;5.32;4.45;;;;;;;10.52;38.93;102234.03;5073704;28;20020;-35
2023/04/05 11:19:53;;;;;;;5.57;3.58;;;;;;;10.36;39.17;102238.91;5073337;28;20020;-36
2023/04/05 11:22:28;;;;;;;6.22;4.18;;;;;;;10.54;41.28;102244.66;5073336;28;20078;-36
2023/04/05 11:24:57;;;;;;;8.73;4.68;;;;;;;10.57;39.63;102239.69;5074183;28;20482;-35
2023/04/05 11:27:39;;;;;;;5.10;4.03;;;;;;;10.53;38.97;102240.28;5073230;28;20052;-36
2023/04/05 11:30:06;;;;;;;4.05;3.50;;;;;;;10.74;40.17;102234.00;5073299;28;20021;-36
2023/04/05 11:32:42;;;;;;;5.97;4.18;;;;;;;10.97;40.36;102231.84;5072910;28;20044;-36